Dati Storici

Data ora Umidita' aria (%) Temperatura aria (°C) Rad globale (W/m²) Gonioanemometro (°) Tacoanemometro (m/s) Pioggia (mm)
14-10-2012 20:40 77.3 % 15.705 3.747 35.787 1.503 0
14-10-2012 20:30 76.9 % 15.764 3.593 36.046 0.835 0
14-10-2012 20:20 76.7 % 15.812 3.555 13.433 0.966 0
14-10-2012 20:10 76.9 % 15.823 3.695 3.768 0.935 0
14-10-2012 20:00 76.9 % 15.864 3.465 12.023 0.882 0
14-10-2012 19:50 76.8 % 15.846 3.76 52.073 0.509 0
14-10-2012 19:40 76.3 % 15.899 3.439 33.54 0.507 0
14-10-2012 19:30 75.8 % 15.971 3.465 35.274 1.67 0
14-10-2012 19:20 75.6 % 16.057 3.439 43.114 0.633 0
14-10-2012 19:10 75.7 % 16.068 3.632 41.386 0.484 0
14-10-2012 19:00 75.5 % 15.867 3.632 27.085 0.568 0
14-10-2012 18:50 74.8 % 15.894 2.901 76.089 0.468 0
14-10-2012 18:40 73.9 % 16.075 2.786 56.282 0.739 0
14-10-2012 18:30 73.3 % 16.286 4.08 4.926 1.301 0
14-10-2012 18:20 72.6 % 16.364 9.495 7.157 0.816 0
14-10-2012 18:10 72.1 % 16.525 17.469 37.196 0.5 0
14-10-2012 18:00 71.5 % 16.601 27.197 50.897 1.056 0
14-10-2012 17:50 70.6 % 16.728 11.263 76.423 1.3 0
14-10-2012 17:40 69.7 % 16.898 21.362 54.974 0.495 0
14-10-2012 17:30 68.4 % 16.956 42.242 26.706 0.543 0

I dati sono presentati in modo automatico a scopo informativo. In seguito a verifica i dati possono subire modifiche o essere invalidati e non riportati negli archivi definitivi.